createdAt,value
2023-07-24T00:00:41.608Z,96963.28
2023-07-24T00:03:09.302Z,96956.47
2023-07-24T00:05:37.028Z,96948.59
2023-07-24T00:08:05.036Z,96941.03
2023-07-24T00:10:32.653Z,96937.94
2023-07-24T00:13:00.295Z,96936.13
2023-07-24T00:15:27.873Z,96943.91
2023-07-24T00:17:55.454Z,96936.78
2023-07-24T00:20:25.402Z,96921.38
2023-07-24T00:22:53.045Z,96927.44
2023-07-24T00:25:20.652Z,96939.97
2023-07-24T00:27:48.207Z,96932.91
2023-07-24T00:30:15.776Z,96925.53
2023-07-24T00:32:45.100Z,96927.09
2023-07-24T00:35:12.674Z,96920.63
2023-07-24T00:37:40.232Z,96917.91
2023-07-24T00:40:09.324Z,96913.34
2023-07-24T00:42:36.889Z,96908.31
2023-07-24T00:45:05.635Z,96908.72
2023-07-24T00:47:33.868Z,96902.19
2023-07-24T00:50:01.618Z,96906.69
2023-07-24T00:52:29.245Z,96901.28
2023-07-24T00:54:56.895Z,96898.91
2023-07-24T00:57:25.036Z,96886.75
2023-07-24T00:59:53.222Z,96889.78
2023-07-24T01:02:21.430Z,96885.78
2023-07-24T01:04:49.882Z,96887.41
2023-07-24T01:07:17.887Z,96882.53
2023-07-24T01:09:45.501Z,96865.94
2023-07-24T01:12:28.894Z,96860.78
2023-07-24T01:15:04.661Z,96861.50
2023-07-24T01:17:33.278Z,96864.47
2023-07-24T01:20:05.033Z,96869.03
2023-07-24T01:23:20.768Z,96856.84
2023-07-24T01:26:00.507Z,96862.81
2023-07-24T01:28:28.190Z,96858.22
2023-07-24T01:30:57.218Z,96856.34
2023-07-24T01:33:25.834Z,96856.34
2023-07-24T01:36:01.700Z,96853.66
2023-07-24T01:38:31.910Z,96854.00
2023-07-24T01:41:01.386Z,96843.75
2023-07-24T01:43:31.359Z,96851.00
2023-07-24T01:45:59.732Z,96849.16
2023-07-24T01:48:27.281Z,96847.50
2023-07-24T01:50:55.801Z,96850.78
2023-07-24T01:53:23.379Z,96856.75
2023-07-24T01:55:50.946Z,96849.72
2023-07-24T01:58:18.573Z,96857.25
2023-07-24T02:00:46.231Z,96854.00
2023-07-24T02:03:13.802Z,96862.91
2023-07-24T02:05:41.405Z,96866.09
2023-07-24T02:08:09.081Z,96863.41
2023-07-24T02:10:39.151Z,96862.81
2023-07-24T02:13:08.413Z,96855.78
2023-07-24T02:15:37.120Z,96854.13
2023-07-24T02:18:05.393Z,96849.81
2023-07-24T02:20:34.078Z,96848.41
2023-07-24T02:23:01.633Z,96837.81
2023-07-24T02:25:29.231Z,96844.31
2023-07-24T02:27:56.830Z,96840.78
2023-07-24T02:30:25.111Z,96837.50
2023-07-24T02:32:52.683Z,96833.41
2023-07-24T02:35:20.284Z,96837.91
2023-07-24T02:37:47.789Z,96837.84
2023-07-24T02:40:15.457Z,96830.69
2023-07-24T02:42:42.968Z,96819.75
2023-07-24T02:45:12.144Z,96817.81
2023-07-24T02:47:39.864Z,96817.81
2023-07-24T02:50:08.036Z,96818.28
2023-07-24T02:52:35.689Z,96825.59
2023-07-24T02:55:03.449Z,96821.00
2023-07-24T02:57:31.015Z,96810.97
2023-07-24T02:59:58.685Z,96812.63
2023-07-24T03:02:26.300Z,96820.25
2023-07-24T03:04:53.889Z,96805.91
2023-07-24T03:07:21.459Z,96789.69
2023-07-24T03:09:49.097Z,96794.28
2023-07-24T03:12:17.097Z,96790.16
2023-07-24T03:14:44.991Z,96791.72
2023-07-24T03:17:12.800Z,96793.63
2023-07-24T03:19:41.810Z,96792.56
2023-07-24T03:22:09.613Z,96801.72
2023-07-24T03:24:37.169Z,96792.25
2023-07-24T03:27:05.035Z,96788.44
2023-07-24T03:29:32.777Z,96796.09
2023-07-24T03:32:00.853Z,96798.22
2023-07-24T03:34:28.619Z,96801.81
2023-07-24T03:36:56.208Z,96803.78
2023-07-24T03:39:23.780Z,96807.88
2023-07-24T03:41:51.317Z,96796.38
2023-07-24T03:44:18.864Z,96784.81
2023-07-24T03:46:47.097Z,96781.84
2023-07-24T03:49:14.758Z,96786.22
2023-07-24T03:51:42.412Z,96790.22
2023-07-24T03:54:10.022Z,96788.84
2023-07-24T03:56:37.572Z,96791.88
2023-07-24T03:59:06.657Z,96803.97
2023-07-24T04:01:34.278Z,96812.00
2023-07-24T04:04:02.461Z,96806.25
2023-07-24T04:06:30.376Z,96794.25
2023-07-24T04:08:59.047Z,96796.75
2023-07-24T04:11:26.608Z,96799.06
2023-07-24T04:13:54.161Z,96804.31
2023-07-24T04:16:21.844Z,96786.03
2023-07-24T04:18:49.470Z,96778.25
2023-07-24T04:21:17.051Z,96767.97
2023-07-24T04:23:44.641Z,96763.72
2023-07-24T04:26:12.193Z,96752.66
2023-07-24T04:28:39.748Z,96760.25
2023-07-24T04:31:07.342Z,96763.50
2023-07-24T04:33:34.904Z,96758.88
2023-07-24T04:36:02.541Z,96761.00
2023-07-24T04:38:30.112Z,96766.41
2023-07-24T04:40:57.709Z,96764.03
2023-07-24T04:43:25.325Z,96753.25
2023-07-24T04:45:52.923Z,96753.81
2023-07-24T04:48:20.877Z,96744.69
2023-07-24T04:50:54.502Z,96732.91
2023-07-24T04:53:22.346Z,96731.06
2023-07-24T04:55:50.184Z,96730.88
2023-07-24T04:58:17.868Z,96735.28
2023-07-24T05:00:45.480Z,96733.47
2023-07-24T05:03:13.290Z,96733.53
2023-07-24T05:05:44.467Z,96733.03
2023-07-24T05:08:13.339Z,96731.72
2023-07-24T05:10:40.968Z,96729.81
2023-07-24T05:13:09.054Z,96729.81
2023-07-24T05:15:37.719Z,96732.22
2023-07-24T05:18:05.289Z,96731.41
2023-07-24T05:20:32.866Z,96729.75
2023-07-24T05:23:00.465Z,96732.41
2023-07-24T05:25:28.044Z,96737.50
2023-07-24T05:27:55.626Z,96745.28
2023-07-24T05:30:23.218Z,96750.94
2023-07-24T05:32:50.980Z,96756.94
2023-07-24T05:35:18.604Z,96750.81
2023-07-24T05:37:46.165Z,96755.38
2023-07-24T05:40:13.881Z,96750.69
2023-07-24T05:42:44.354Z,96752.19
2023-07-24T05:45:12.359Z,96762.81
2023-07-24T05:47:39.970Z,96765.34
2023-07-24T05:50:08.031Z,96777.53
2023-07-24T05:52:35.577Z,96789.47
2023-07-24T05:55:04.156Z,96786.22
2023-07-24T05:57:31.752Z,96793.88
2023-07-24T05:59:59.282Z,96785.47
2023-07-24T06:02:26.832Z,96788.81
2023-07-24T06:04:54.465Z,96785.53
2023-07-24T06:07:22.087Z,96781.25
2023-07-24T06:09:49.804Z,96772.63
2023-07-24T06:12:17.538Z,96771.84
2023-07-24T06:14:45.147Z,96771.59
2023-07-24T06:17:12.713Z,96764.03
2023-07-24T06:19:40.302Z,96759.47
2023-07-24T06:22:08.467Z,96763.88
2023-07-24T06:24:36.157Z,96758.44
2023-07-24T06:27:04.071Z,96756.84
2023-07-24T06:29:31.806Z,96748.72
2023-07-24T06:31:59.470Z,96756.59
2023-07-24T06:34:27.048Z,96750.69
2023-07-24T06:36:55.246Z,96745.59
2023-07-24T06:39:24.776Z,96746.50
2023-07-24T06:41:56.217Z,96752.78
2023-07-24T06:44:23.847Z,96747.63
2023-07-24T06:46:51.429Z,96749.03
2023-07-24T06:49:18.991Z,96744.47
2023-07-24T06:51:46.582Z,96739.66
2023-07-24T06:54:14.134Z,96739.97
2023-07-24T06:56:41.676Z,96737.81
2023-07-24T06:59:09.221Z,96733.56
2023-07-24T07:01:36.892Z,96736.06
2023-07-24T07:04:04.668Z,96732.53
2023-07-24T07:06:32.264Z,96729.03
2023-07-24T07:08:59.838Z,96737.47
2023-07-24T07:11:27.384Z,96735.84
2023-07-24T07:13:54.953Z,96725.56
2023-07-24T07:16:22.588Z,96731.28
2023-07-24T07:18:50.323Z,96740.22
2023-07-24T07:21:17.966Z,96753.31
2023-07-24T07:23:47.414Z,96758.50
2023-07-24T07:26:15.190Z,96762.81
2023-07-24T07:28:42.835Z,96751.16
2023-07-24T07:31:10.448Z,96764.47
2023-07-24T07:33:38.113Z,96765.03
2023-07-24T07:36:06.984Z,96769.09
2023-07-24T07:38:34.560Z,96784.31
2023-07-24T07:41:06.671Z,96798.97
2023-07-24T07:43:34.322Z,96801.69
2023-07-24T07:46:01.946Z,96814.19
2023-07-24T07:48:29.584Z,96826.66
2023-07-24T07:50:57.158Z,96828.31
2023-07-24T07:53:24.726Z,96830.50
2023-07-24T07:56:01.013Z,96841.34
2023-07-24T07:58:28.866Z,96845.97
2023-07-24T08:00:56.662Z,96835.91
2023-07-24T08:03:24.383Z,96849.78
2023-07-24T08:05:52.048Z,96851.09
2023-07-24T08:08:19.590Z,96858.13
2023-07-24T08:10:47.182Z,96855.88
2023-07-24T08:13:14.718Z,96855.81
2023-07-24T08:15:42.253Z,96848.47
2023-07-24T08:18:09.910Z,96835.69
2023-07-24T08:20:38.527Z,96831.34
2023-07-24T08:23:06.074Z,96818.00
2023-07-24T08:25:33.645Z,96813.34
2023-07-24T08:28:05.864Z,96811.41
2023-07-24T08:30:35.650Z,96799.94
2023-07-24T08:33:04.209Z,96776.63
2023-07-24T08:35:31.899Z,96763.88
2023-07-24T08:37:59.489Z,96748.16
2023-07-24T08:40:27.096Z,96728.38
2023-07-24T08:42:55.777Z,96718.06
2023-07-24T08:45:25.602Z,96711.28
2023-07-24T08:47:53.579Z,96707.22
2023-07-24T08:50:22.761Z,96713.50
2023-07-24T08:52:50.373Z,96711.34
2023-07-24T08:55:18.022Z,96712.94
2023-07-24T08:57:45.610Z,96726.81
2023-07-24T09:00:13.842Z,96742.88
2023-07-24T09:02:41.521Z,96755.34
2023-07-24T09:05:09.965Z,96765.41
2023-07-24T09:07:38.709Z,96777.66
2023-07-24T09:10:08.342Z,96778.53
2023-07-24T09:12:39.906Z,96768.97
2023-07-24T09:15:08.803Z,96765.28
2023-07-24T09:17:36.490Z,96769.94
2023-07-24T09:20:05.005Z,96774.31
2023-07-24T09:22:34.425Z,96771.38
2023-07-24T09:25:04.463Z,96770.88
2023-07-24T09:27:33.145Z,96781.78
2023-07-24T09:30:02.079Z,96778.53
2023-07-24T09:32:30.202Z,96787.28
2023-07-24T09:34:57.804Z,96776.41
2023-07-24T09:37:36.448Z,96772.34
2023-07-24T09:40:07.555Z,96769.97
2023-07-24T09:42:48.546Z,96767.25
2023-07-24T09:45:23.413Z,96765.38
2023-07-24T09:47:56.712Z,96760.47
2023-07-24T09:50:26.859Z,96770.56
2023-07-24T09:52:55.893Z,96777.88
2023-07-24T09:55:31.248Z,96788.22
2023-07-24T09:58:01.488Z,96794.72
2023-07-24T10:00:29.934Z,96797.16
2023-07-24T10:02:57.731Z,96794.38
2023-07-24T10:05:25.734Z,96793.00
2023-07-24T10:07:53.917Z,96789.19
2023-07-24T10:10:22.518Z,96795.69
2023-07-24T10:12:50.528Z,96804.09
2023-07-24T10:15:19.137Z,96811.41
2023-07-24T10:17:48.382Z,96806.75
2023-07-24T10:20:18.922Z,96819.25
2023-07-24T10:22:46.792Z,96820.34
2023-07-24T10:25:14.439Z,96817.03
2023-07-24T10:27:47.892Z,96821.03
2023-07-24T10:30:32.606Z,96819.13
2023-07-24T10:33:20.026Z,96818.25
2023-07-24T10:36:10.775Z,96818.22
2023-07-24T10:38:41.698Z,96823.38
2023-07-24T10:41:11.493Z,96808.16
2023-07-24T10:43:48.686Z,96802.44
2023-07-24T10:46:20.302Z,96808.38
2023-07-24T10:48:53.214Z,96808.84
2023-07-24T10:51:22.578Z,96828.06
2023-07-24T10:53:50.919Z,96830.72
2023-07-24T10:56:18.605Z,96820.38
2023-07-24T10:58:46.201Z,96820.91
2023-07-24T11:01:15.240Z,96810.50
2023-07-24T11:03:43.885Z,96802.06
2023-07-24T11:06:20.900Z,96782.81
2023-07-24T11:09:00.363Z,96769.78
2023-07-24T11:11:37.133Z,96749.41
2023-07-24T11:14:05.638Z,96738.84
2023-07-24T11:16:34.438Z,96741.81
2023-07-24T11:19:02.518Z,96749.09
2023-07-24T11:21:30.670Z,96722.78
2023-07-24T11:23:58.918Z,96706.81
2023-07-24T11:26:28.146Z,96707.63
2023-07-24T11:28:56.442Z,96682.66
2023-07-24T11:31:24.127Z,96666.13
2023-07-24T11:33:53.953Z,96655.34
2023-07-24T11:36:22.772Z,96647.19
2023-07-24T11:38:50.418Z,96673.47
2023-07-24T11:41:18.983Z,96692.75
2023-07-24T11:43:51.625Z,96702.59
2023-07-24T11:46:32.855Z,96702.66
2023-07-24T11:49:00.699Z,96703.28
2023-07-24T11:51:30.101Z,96711.22
2023-07-24T11:54:09.042Z,96706.41
2023-07-24T11:56:36.938Z,96715.91
2023-07-24T11:59:23.073Z,96719.13
2023-07-24T12:01:50.625Z,96703.88
2023-07-24T12:04:18.583Z,96730.81
2023-07-24T12:06:46.279Z,96746.38
2023-07-24T12:09:14.251Z,96738.19
2023-07-24T12:11:46.674Z,96738.66
2023-07-24T12:14:15.925Z,96730.09
2023-07-24T12:16:43.885Z,96749.91
2023-07-24T12:19:11.525Z,96744.72
2023-07-24T12:21:39.368Z,96754.44
2023-07-24T12:24:06.967Z,96753.56
2023-07-24T12:26:34.731Z,96732.69
2023-07-24T12:29:02.325Z,96732.38
2023-07-24T12:31:30.653Z,96732.84
2023-07-24T12:33:58.479Z,96743.69
2023-07-24T12:36:26.065Z,96752.84
2023-07-24T12:38:53.658Z,96736.59
2023-07-24T12:41:21.190Z,96729.00
2023-07-24T12:43:48.823Z,96720.03
2023-07-24T12:46:16.487Z,96736.28
2023-07-24T12:48:44.088Z,96727.34
2023-07-24T12:51:11.658Z,96732.47
2023-07-24T12:53:47.525Z,96724.56
2023-07-24T12:56:21.130Z,96699.38
2023-07-24T12:58:48.692Z,96688.41
2023-07-24T13:01:16.342Z,96672.94
2023-07-24T13:03:44.007Z,96674.56
2023-07-24T13:06:11.620Z,96679.16
2023-07-24T13:08:39.173Z,96686.47
2023-07-24T13:11:06.827Z,96691.28
2023-07-24T13:13:34.866Z,96692.94
2023-07-24T13:16:02.825Z,96681.78
2023-07-24T13:18:30.928Z,96683.47
2023-07-24T13:20:58.598Z,96669.13
2023-07-24T13:23:26.173Z,96668.63
2023-07-24T13:25:54.461Z,96665.16
2023-07-24T13:28:22.096Z,96659.78
2023-07-24T13:30:49.758Z,96659.78
2023-07-24T13:33:17.387Z,96649.25
2023-07-24T13:35:45.410Z,96647.41
2023-07-24T13:38:13.220Z,96636.63
2023-07-24T13:40:41.076Z,96628.88
2023-07-24T13:43:08.662Z,96635.19
2023-07-24T13:45:36.318Z,96622.25
2023-07-24T13:48:04.210Z,96619.03
2023-07-24T13:50:31.821Z,96613.44
2023-07-24T13:52:59.378Z,96601.34
2023-07-24T13:55:27.013Z,96608.75
2023-07-24T13:57:54.612Z,96600.38
2023-07-24T14:00:22.320Z,96590.63
2023-07-24T14:02:50.044Z,96595.72
2023-07-24T14:05:17.883Z,96589.09
2023-07-24T14:07:45.543Z,96594.97
2023-07-24T14:10:13.205Z,96605.53
2023-07-24T14:12:40.818Z,96607.69
2023-07-24T14:15:09.111Z,96607.16
2023-07-24T14:17:36.770Z,96597.38
2023-07-24T14:20:06.287Z,96591.94
2023-07-24T14:22:33.913Z,96579.44
2023-07-24T14:25:01.553Z,96580.78
2023-07-24T14:27:29.198Z,96572.88
2023-07-24T14:29:56.850Z,96573.16
2023-07-24T14:32:24.526Z,96560.31
2023-07-24T14:34:53.730Z,96561.72
2023-07-24T14:37:22.028Z,96558.69
2023-07-24T14:39:51.138Z,96552.09
2023-07-24T14:42:19.192Z,96547.38
2023-07-24T14:44:46.839Z,96549.47
2023-07-24T14:47:14.717Z,96563.84
2023-07-24T14:49:42.325Z,96552.94
2023-07-24T14:52:10.182Z,96533.06
2023-07-24T14:54:39.732Z,96543.16
2023-07-24T14:57:19.123Z,96533.00
2023-07-24T14:59:52.250Z,96524.97
2023-07-24T15:02:20.025Z,96529.81
2023-07-24T15:04:47.956Z,96524.53
2023-07-24T15:07:15.754Z,96534.59
2023-07-24T15:09:44.409Z,96531.88
2023-07-24T15:12:12.128Z,96545.56
2023-07-24T15:14:39.803Z,96540.88
2023-07-24T15:17:08.121Z,96549.28
2023-07-24T15:19:35.760Z,96557.44
2023-07-24T15:22:03.468Z,96559.84
2023-07-24T15:24:31.080Z,96565.53
2023-07-24T15:26:58.723Z,96560.09
2023-07-24T15:29:26.376Z,96559.03
2023-07-24T15:31:53.999Z,96571.41
2023-07-24T15:34:21.590Z,96581.91
2023-07-24T15:36:49.180Z,96580.28
2023-07-24T15:39:16.741Z,96585.25
2023-07-24T15:41:44.304Z,96588.34
2023-07-24T15:44:11.982Z,96587.66
2023-07-24T15:46:39.698Z,96589.06
2023-07-24T15:49:07.364Z,96594.84
2023-07-24T15:51:35.237Z,96594.88
2023-07-24T15:54:05.753Z,96592.47
2023-07-24T15:56:33.429Z,96580.75
2023-07-24T15:59:01.144Z,96596.34
2023-07-24T16:01:29.545Z,96595.03
2023-07-24T16:03:57.547Z,96570.84
2023-07-24T16:06:25.233Z,96568.97
2023-07-24T16:08:52.867Z,96582.84
2023-07-24T16:11:20.675Z,96604.41
2023-07-24T16:13:48.292Z,96625.63
2023-07-24T16:16:16.063Z,96656.41
2023-07-24T16:18:44.172Z,96667.69
2023-07-24T16:21:11.789Z,96636.44
2023-07-24T16:23:39.520Z,96629.97
2023-07-24T16:26:07.156Z,96596.66
2023-07-24T16:28:34.724Z,96599.66
2023-07-24T16:31:02.385Z,96602.97
2023-07-24T16:33:31.296Z,96619.78
2023-07-24T16:35:59.178Z,96623.13
2023-07-24T16:38:26.740Z,96604.25
2023-07-24T16:40:55.772Z,96640.75
2023-07-24T16:43:23.962Z,96658.50
2023-07-24T16:48:22.963Z,96649.88
2023-07-24T16:50:50.697Z,96658.59
2023-07-24T16:53:18.292Z,96665.44
2023-07-24T16:55:45.857Z,96670.88
2023-07-24T16:58:13.431Z,96655.84
2023-07-24T17:00:41.072Z,96656.94
2023-07-24T17:03:08.758Z,96644.41
2023-07-24T17:05:36.869Z,96656.72
2023-07-24T17:08:04.905Z,96656.84
2023-07-24T17:10:44.888Z,96639.28
2023-07-24T17:13:14.418Z,96634.47
2023-07-24T17:15:44.084Z,96640.91
2023-07-24T17:18:11.699Z,96646.50
2023-07-24T17:20:39.307Z,96651.75
2023-07-24T17:23:07.392Z,96645.69
2023-07-24T17:25:36.946Z,96661.13
2023-07-24T17:28:04.936Z,96651.47
2023-07-24T17:30:32.743Z,96654.66
2023-07-24T17:33:00.598Z,96655.72
2023-07-24T17:35:28.611Z,96663.09
2023-07-24T17:37:56.179Z,96659.28
2023-07-24T17:40:23.944Z,96671.22
2023-07-24T17:42:52.520Z,96671.22
2023-07-24T17:45:20.076Z,96669.31
2023-07-24T17:47:47.662Z,96677.94
2023-07-24T17:50:15.341Z,96665.16
2023-07-24T17:52:42.915Z,96665.75
2023-07-24T17:55:10.549Z,96658.66
2023-07-24T17:57:38.186Z,96662.66
2023-07-24T18:00:06.772Z,96673.50
2023-07-24T18:03:11.533Z,96677.75
2023-07-24T18:05:39.429Z,96674.78
2023-07-24T18:08:07.076Z,96675.00
2023-07-24T18:10:34.721Z,96677.44
2023-07-24T18:13:03.102Z,96673.28
2023-07-24T18:15:30.687Z,96686.34
2023-07-24T18:17:58.338Z,96686.34
2023-07-24T18:20:25.931Z,96683.84
2023-07-24T18:22:53.947Z,96686.81
2023-07-24T18:25:21.614Z,96677.84
2023-07-24T18:27:49.166Z,96681.88
2023-07-24T18:30:16.997Z,96691.59
2023-07-24T18:32:44.556Z,96691.03
2023-07-24T18:35:13.957Z,96694.78
2023-07-24T18:37:41.516Z,96691.50
2023-07-24T18:40:09.808Z,96700.31
2023-07-24T18:42:37.357Z,96702.69
2023-07-24T18:45:05.885Z,96704.00
2023-07-24T18:47:35.161Z,96712.38
2023-07-24T18:50:03.440Z,96710.97
2023-07-24T18:52:30.980Z,96712.06
2023-07-24T18:55:00.341Z,96706.31
2023-07-24T18:57:27.987Z,96707.91
2023-07-24T18:59:55.606Z,96710.72
2023-07-24T19:02:23.319Z,96714.44
2023-07-24T19:04:51.159Z,96718.19
2023-07-24T19:07:18.831Z,96722.22
2023-07-24T19:09:46.379Z,96714.81
2023-07-24T19:12:14.072Z,96721.25
2023-07-24T19:14:41.742Z,96723.72
2023-07-24T19:17:09.576Z,96723.06
2023-07-24T19:19:38.964Z,96731.19
2023-07-24T19:22:06.934Z,96728.00
2023-07-24T19:24:34.584Z,96719.31
2023-07-24T19:27:02.401Z,96727.44
2023-07-24T19:29:29.976Z,96730.06
2023-07-24T19:31:57.621Z,96726.53
2023-07-24T19:34:25.203Z,96724.88
2023-07-24T19:36:52.938Z,96730.00
2023-07-24T19:39:20.546Z,96728.25
2023-07-24T19:41:48.105Z,96718.97
2023-07-24T19:44:15.686Z,96721.09
2023-07-24T19:46:43.287Z,96724.06
2023-07-24T19:49:10.877Z,96719.72
2023-07-24T19:51:38.444Z,96715.56
2023-07-24T19:54:06.083Z,96707.13
2023-07-24T19:56:33.735Z,96713.34
2023-07-24T19:59:01.275Z,96699.00
2023-07-24T20:01:29.156Z,96697.78
2023-07-24T20:03:57.004Z,96698.09
2023-07-24T20:06:26.277Z,96704.91
2023-07-24T20:08:53.849Z,96714.41
2023-07-24T20:11:21.824Z,96713.28
2023-07-24T20:13:49.540Z,96707.88
2023-07-24T20:16:20.146Z,96707.03
2023-07-24T20:18:48.008Z,96705.06
2023-07-24T20:21:16.414Z,96705.88
2023-07-24T20:23:44.119Z,96702.84
2023-07-24T20:26:11.768Z,96703.38
2023-07-24T20:28:39.700Z,96703.03
2023-07-24T20:31:07.359Z,96707.63
2023-07-24T20:33:34.980Z,96707.06
2023-07-24T20:36:07.898Z,96713.19
2023-07-24T20:38:37.677Z,96719.16
2023-07-24T20:41:05.605Z,96720.22
2023-07-24T20:43:33.225Z,96721.84
2023-07-24T20:46:12.861Z,96732.94
2023-07-24T20:48:41.615Z,96728.81
2023-07-24T20:51:20.016Z,96739.16
2023-07-24T20:53:48.923Z,96746.91
2023-07-24T20:56:16.580Z,96743.78
2023-07-24T20:58:45.126Z,96741.59
2023-07-24T21:01:12.714Z,96746.41
2023-07-24T21:03:40.405Z,96740.44
2023-07-24T21:06:07.970Z,96746.53
2023-07-24T21:08:35.536Z,96740.56
2023-07-24T21:11:03.185Z,96733.78
2023-07-24T21:13:30.760Z,96738.28
2023-07-24T21:15:59.136Z,96741.72
2023-07-24T21:18:27.433Z,96741.94
2023-07-24T21:20:55.084Z,96745.22
2023-07-24T21:23:22.683Z,96743.00
2023-07-24T21:25:55.364Z,96746.41
2023-07-24T21:28:24.361Z,96754.38
2023-07-24T21:30:52.447Z,96754.19
2023-07-24T21:33:20.262Z,96753.84
2023-07-24T21:36:00.525Z,96755.28
2023-07-24T21:38:28.207Z,96758.78
2023-07-24T21:40:55.871Z,96759.75
2023-07-24T21:43:24.595Z,96763.50
2023-07-24T21:45:54.825Z,96755.63
2023-07-24T21:48:22.563Z,96756.47
2023-07-24T21:50:54.152Z,96761.38
2023-07-24T21:53:22.660Z,96768.66
2023-07-24T21:55:50.458Z,96761.03
2023-07-24T21:58:18.152Z,96750.63
2023-07-24T22:00:45.925Z,96754.84
2023-07-24T22:03:13.687Z,96759.66
2023-07-24T22:05:41.407Z,96759.09
2023-07-24T22:08:09.506Z,96763.09
2023-07-24T22:10:37.096Z,96763.56
2023-07-24T22:13:04.694Z,96759.69
2023-07-24T22:15:32.472Z,96757.69
2023-07-24T22:18:00.071Z,96752.56
2023-07-24T22:20:39.131Z,96753.38
2023-07-24T22:23:09.635Z,96758.78
2023-07-24T22:25:37.249Z,96753.72
2023-07-24T22:28:05.083Z,96744.69
2023-07-24T22:30:32.651Z,96744.34
2023-07-24T22:33:00.326Z,96742.22
2023-07-24T22:35:28.144Z,96749.50
2023-07-24T22:37:55.682Z,96745.66
2023-07-24T22:40:23.229Z,96744.13
2023-07-24T22:42:50.790Z,96738.22
2023-07-24T22:45:18.431Z,96740.69
2023-07-24T22:47:46.650Z,96740.94
2023-07-24T22:50:15.327Z,96735.06
2023-07-24T22:52:43.905Z,96737.31
2023-07-24T22:55:11.653Z,96734.13
2023-07-24T22:57:39.221Z,96740.91
2023-07-24T23:00:07.527Z,96734.13
2023-07-24T23:02:35.427Z,96735.66
2023-07-24T23:05:03.030Z,96742.09
2023-07-24T23:07:30.572Z,96742.59
2023-07-24T23:09:58.189Z,96731.91
2023-07-24T23:12:25.795Z,96734.13
2023-07-24T23:14:53.465Z,96731.66
2023-07-24T23:17:21.116Z,96745.41
2023-07-24T23:19:48.749Z,96751.59
2023-07-24T23:22:16.314Z,96747.16
2023-07-24T23:24:43.881Z,96747.16
2023-07-24T23:27:11.533Z,96738.13
2023-07-24T23:29:39.131Z,96722.41
2023-07-24T23:32:07.489Z,96710.59
2023-07-24T23:34:35.512Z,96699.66
2023-07-24T23:37:03.102Z,96697.75
2023-07-24T23:39:30.708Z,96691.09
2023-07-24T23:41:58.270Z,96685.69
2023-07-24T23:44:25.846Z,96692.94
2023-07-24T23:46:53.410Z,96701.03
2023-07-24T23:49:21.004Z,96699.66
2023-07-24T23:51:48.566Z,96700.47
2023-07-24T23:54:16.312Z,96696.94
2023-07-24T23:56:43.859Z,96695.91
2023-07-24T23:59:11.430Z,96693.78
